sensor_id;sensor_type;location;lat;lon;timestamp;P1;durP1;ratioP1;P2;durP2;ratioP2
21987;SDS011;11158;53.404;-1.510;2023-05-18T00:01:35;6.35;;;3.38;;
21987;SDS011;11158;53.404;-1.510;2023-05-18T00:04:24;7.70;;;3.78;;
21987;SDS011;11158;53.404;-1.510;2023-05-18T00:07:09;3.88;;;3.20;;
21987;SDS011;11158;53.404;-1.510;2023-05-18T00:09:53;5.97;;;3.45;;
21987;SDS011;11158;53.404;-1.510;2023-05-18T00:12:37;5.22;;;3.22;;
21987;SDS011;11158;53.404;-1.510;2023-05-18T00:15:22;5.00;;;3.42;;
21987;SDS011;11158;53.404;-1.510;2023-05-18T00:18:06;5.75;;;3.28;;
21987;SDS011;11158;53.404;-1.510;2023-05-18T00:20:51;6.50;;;3.25;;
21987;SDS011;11158;53.404;-1.510;2023-05-18T00:23:44;4.55;;;3.13;;
21987;SDS011;11158;53.404;-1.510;2023-05-18T00:26:32;4.28;;;2.78;;
21987;SDS011;11158;53.404;-1.510;2023-05-18T00:29:17;5.40;;;3.00;;
21987;SDS011;11158;53.404;-1.510;2023-05-18T00:32:01;4.88;;;2.78;;
21987;SDS011;11158;53.404;-1.510;2023-05-18T00:34:45;6.78;;;3.33;;
21987;SDS011;11158;53.404;-1.510;2023-05-18T00:37:29;3.95;;;3.08;;
21987;SDS011;11158;53.404;-1.510;2023-05-18T00:40:14;6.90;;;3.38;;
21987;SDS011;11158;53.404;-1.510;2023-05-18T00:42:58;5.70;;;3.75;;
21987;SDS011;11158;53.404;-1.510;2023-05-18T00:45:43;4.75;;;3.10;;
21987;SDS011;11158;53.404;-1.510;2023-05-18T00:48:27;6.75;;;3.40;;
21987;SDS011;11158;53.404;-1.510;2023-05-18T00:51:11;3.90;;;2.60;;
21987;SDS011;11158;53.404;-1.510;2023-05-18T00:53:55;5.00;;;4.03;;
21987;SDS011;11158;53.404;-1.510;2023-05-18T00:56:40;6.65;;;3.42;;
21987;SDS011;11158;53.404;-1.510;2023-05-18T00:59:25;4.13;;;3.00;;
21987;SDS011;11158;53.404;-1.510;2023-05-18T01:02:09;7.97;;;3.67;;
21987;SDS011;11158;53.404;-1.510;2023-05-18T01:04:55;5.47;;;3.20;;
21987;SDS011;11158;53.404;-1.510;2023-05-18T01:07:39;4.38;;;2.97;;
21987;SDS011;11158;53.404;-1.510;2023-05-18T01:10:27;5.90;;;3.08;;
21987;SDS011;11158;53.404;-1.510;2023-05-18T01:13:18;5.43;;;3.20;;
21987;SDS011;11158;53.404;-1.510;2023-05-18T01:16:08;8.35;;;3.30;;
21987;SDS011;11158;53.404;-1.510;2023-05-18T01:18:59;6.40;;;3.25;;
21987;SDS011;11158;53.404;-1.510;2023-05-18T01:22:00;5.60;;;3.25;;
21987;SDS011;11158;53.404;-1.510;2023-05-18T01:25:02;6.22;;;3.55;;
21987;SDS011;11158;53.404;-1.510;2023-05-18T01:28:07;7.50;;;3.60;;
21987;SDS011;11158;53.404;-1.510;2023-05-18T01:30:56;5.60;;;3.42;;
21987;SDS011;11158;53.404;-1.510;2023-05-18T01:33:41;5.85;;;2.88;;
21987;SDS011;11158;53.404;-1.510;2023-05-18T01:36:26;4.63;;;3.30;;
21987;SDS011;11158;53.404;-1.510;2023-05-18T01:39:10;5.07;;;3.65;;
21987;SDS011;11158;53.404;-1.510;2023-05-18T01:41:57;5.60;;;3.35;;
21987;SDS011;11158;53.404;-1.510;2023-05-18T01:44:48;7.15;;;3.92;;
21987;SDS011;11158;53.404;-1.510;2023-05-18T01:47:36;4.65;;;2.95;;
21987;SDS011;11158;53.404;-1.510;2023-05-18T01:50:28;4.20;;;3.50;;
21987;SDS011;11158;53.404;-1.510;2023-05-18T01:53:22;4.68;;;3.15;;
21987;SDS011;11158;53.404;-1.510;2023-05-18T01:56:07;5.80;;;3.60;;
21987;SDS011;11158;53.404;-1.510;2023-05-18T01:58:53;6.22;;;3.33;;
21987;SDS011;11158;53.404;-1.510;2023-05-18T02:01:38;5.18;;;3.22;;
21987;SDS011;11158;53.404;-1.510;2023-05-18T02:04:22;4.40;;;3.38;;
21987;SDS011;11158;53.404;-1.510;2023-05-18T02:07:06;6.20;;;3.72;;
21987;SDS011;11158;53.404;-1.510;2023-05-18T02:09:50;5.82;;;3.78;;
21987;SDS011;11158;53.404;-1.510;2023-05-18T02:12:34;5.22;;;3.50;;
21987;SDS011;11158;53.404;-1.510;2023-05-18T02:15:19;6.47;;;3.63;;
21987;SDS011;11158;53.404;-1.510;2023-05-18T02:18:04;6.18;;;3.60;;
21987;SDS011;11158;53.404;-1.510;2023-05-18T02:20:48;4.88;;;3.35;;
21987;SDS011;11158;53.404;-1.510;2023-05-18T02:23:33;5.10;;;3.67;;
21987;SDS011;11158;53.404;-1.510;2023-05-18T02:26:17;7.03;;;3.33;;
21987;SDS011;11158;53.404;-1.510;2023-05-18T02:29:01;5.55;;;3.03;;
21987;SDS011;11158;53.404;-1.510;2023-05-18T02:31:45;4.75;;;3.20;;
21987;SDS011;11158;53.404;-1.510;2023-05-18T02:34:29;7.00;;;3.45;;
21987;SDS011;11158;53.404;-1.510;2023-05-18T02:37:14;4.22;;;3.10;;
21987;SDS011;11158;53.404;-1.510;2023-05-18T02:39:59;4.13;;;3.17;;
21987;SDS011;11158;53.404;-1.510;2023-05-18T02:42:43;5.47;;;3.25;;
21987;SDS011;11158;53.404;-1.510;2023-05-18T02:45:28;6.07;;;3.30;;
21987;SDS011;11158;53.404;-1.510;2023-05-18T02:48:12;7.68;;;3.42;;
21987;SDS011;11158;53.404;-1.510;2023-05-18T02:50:56;5.35;;;3.25;;
21987;SDS011;11158;53.404;-1.510;2023-05-18T02:53:41;6.18;;;3.33;;
21987;SDS011;11158;53.404;-1.510;2023-05-18T02:56:28;4.53;;;3.42;;
21987;SDS011;11158;53.404;-1.510;2023-05-18T02:59:12;7.28;;;3.90;;
21987;SDS011;11158;53.404;-1.510;2023-05-18T03:01:56;5.10;;;3.58;;
21987;SDS011;11158;53.404;-1.510;2023-05-18T03:04:41;6.30;;;3.42;;
21987;SDS011;11158;53.404;-1.510;2023-05-18T03:07:25;4.78;;;3.50;;
21987;SDS011;11158;53.404;-1.510;2023-05-18T03:10:10;4.55;;;3.10;;
21987;SDS011;11158;53.404;-1.510;2023-05-18T03:12:54;5.53;;;3.80;;
21987;SDS011;11158;53.404;-1.510;2023-05-18T03:15:38;6.03;;;3.30;;
21987;SDS011;11158;53.404;-1.510;2023-05-18T03:18:23;5.57;;;3.10;;
21987;SDS011;11158;53.404;-1.510;2023-05-18T03:21:08;4.90;;;3.38;;
21987;SDS011;11158;53.404;-1.510;2023-05-18T03:23:53;5.57;;;3.67;;
21987;SDS011;11158;53.404;-1.510;2023-05-18T03:26:37;5.28;;;3.28;;
21987;SDS011;11158;53.404;-1.510;2023-05-18T03:29:22;5.15;;;3.55;;
21987;SDS011;11158;53.404;-1.510;2023-05-18T03:32:06;5.50;;;3.42;;
21987;SDS011;11158;53.404;-1.510;2023-05-18T03:34:51;6.40;;;3.45;;
21987;SDS011;11158;53.404;-1.510;2023-05-18T03:37:35;4.57;;;3.42;;
21987;SDS011;11158;53.404;-1.510;2023-05-18T03:40:20;4.30;;;3.17;;
21987;SDS011;11158;53.404;-1.510;2023-05-18T03:43:05;5.95;;;3.55;;
21987;SDS011;11158;53.404;-1.510;2023-05-18T03:45:48;5.85;;;3.80;;
21987;SDS011;11158;53.404;-1.510;2023-05-18T03:48:33;4.47;;;3.30;;
21987;SDS011;11158;53.404;-1.510;2023-05-18T03:51:17;5.57;;;3.78;;
21987;SDS011;11158;53.404;-1.510;2023-05-18T03:54:01;6.05;;;3.75;;
21987;SDS011;11158;53.404;-1.510;2023-05-18T03:56:45;4.43;;;3.45;;
21987;SDS011;11158;53.404;-1.510;2023-05-18T03:59:29;4.00;;;3.28;;
21987;SDS011;11158;53.404;-1.510;2023-05-18T04:02:13;5.47;;;3.42;;
21987;SDS011;11158;53.404;-1.510;2023-05-18T04:04:59;4.88;;;3.40;;
21987;SDS011;11158;53.404;-1.510;2023-05-18T04:07:44;5.45;;;3.38;;
21987;SDS011;11158;53.404;-1.510;2023-05-18T04:10:29;4.72;;;3.10;;
21987;SDS011;11158;53.404;-1.510;2023-05-18T04:13:14;8.30;;;3.70;;
21987;SDS011;11158;53.404;-1.510;2023-05-18T04:15:58;4.13;;;3.35;;
21987;SDS011;11158;53.404;-1.510;2023-05-18T04:18:42;4.72;;;3.63;;
21987;SDS011;11158;53.404;-1.510;2023-05-18T04:21:27;4.32;;;3.30;;
21987;SDS011;11158;53.404;-1.510;2023-05-18T04:24:17;5.22;;;3.58;;
21987;SDS011;11158;53.404;-1.510;2023-05-18T04:27:02;5.47;;;3.20;;
21987;SDS011;11158;53.404;-1.510;2023-05-18T04:29:46;4.85;;;3.33;;
21987;SDS011;11158;53.404;-1.510;2023-05-18T04:32:31;6.97;;;3.22;;
21987;SDS011;11158;53.404;-1.510;2023-05-18T04:35:19;6.85;;;3.67;;
21987;SDS011;11158;53.404;-1.510;2023-05-18T04:38:03;5.55;;;3.33;;
21987;SDS011;11158;53.404;-1.510;2023-05-18T04:40:48;6.65;;;3.50;;
21987;SDS011;11158;53.404;-1.510;2023-05-18T04:43:36;5.28;;;3.53;;
21987;SDS011;11158;53.404;-1.510;2023-05-18T04:46:20;4.70;;;3.20;;
21987;SDS011;11158;53.404;-1.510;2023-05-18T04:49:05;5.03;;;3.60;;
21987;SDS011;11158;53.404;-1.510;2023-05-18T04:51:49;6.20;;;3.40;;
21987;SDS011;11158;53.404;-1.510;2023-05-18T04:54:38;6.70;;;3.92;;
21987;SDS011;11158;53.404;-1.510;2023-05-18T04:57:23;6.32;;;3.90;;
21987;SDS011;11158;53.404;-1.510;2023-05-18T05:00:07;5.50;;;3.60;;
21987;SDS011;11158;53.404;-1.510;2023-05-18T05:02:52;6.63;;;3.97;;
21987;SDS011;11158;53.404;-1.510;2023-05-18T05:05:37;5.43;;;3.33;;
21987;SDS011;11158;53.404;-1.510;2023-05-18T05:08:21;5.55;;;3.53;;
21987;SDS011;11158;53.404;-1.510;2023-05-18T05:11:05;7.35;;;3.60;;
21987;SDS011;11158;53.404;-1.510;2023-05-18T05:13:49;6.05;;;3.80;;
21987;SDS011;11158;53.404;-1.510;2023-05-18T05:16:33;10.75;;;3.80;;
21987;SDS011;11158;53.404;-1.510;2023-05-18T05:19:18;5.60;;;3.78;;
21987;SDS011;11158;53.404;-1.510;2023-05-18T05:22:02;7.22;;;3.60;;
21987;SDS011;11158;53.404;-1.510;2023-05-18T05:24:46;8.52;;;3.70;;
21987;SDS011;11158;53.404;-1.510;2023-05-18T05:27:30;5.97;;;3.60;;
21987;SDS011;11158;53.404;-1.510;2023-05-18T05:30:14;7.70;;;4.00;;
21987;SDS011;11158;53.404;-1.510;2023-05-18T05:32:58;7.40;;;4.15;;
21987;SDS011;11158;53.404;-1.510;2023-05-18T05:35:43;5.93;;;4.18;;
21987;SDS011;11158;53.404;-1.510;2023-05-18T05:38:27;7.20;;;3.80;;
21987;SDS011;11158;53.404;-1.510;2023-05-18T05:41:11;8.88;;;5.75;;
21987;SDS011;11158;53.404;-1.510;2023-05-18T05:43:56;7.50;;;4.10;;
21987;SDS011;11158;53.404;-1.510;2023-05-18T05:46:40;6.40;;;3.72;;
21987;SDS011;11158;53.404;-1.510;2023-05-18T05:49:24;5.53;;;3.47;;
21987;SDS011;11158;53.404;-1.510;2023-05-18T05:52:08;6.75;;;3.70;;
21987;SDS011;11158;53.404;-1.510;2023-05-18T05:54:52;6.90;;;3.70;;
21987;SDS011;11158;53.404;-1.510;2023-05-18T05:57:37;6.75;;;3.75;;
21987;SDS011;11158;53.404;-1.510;2023-05-18T06:00:25;8.30;;;4.30;;
21987;SDS011;11158;53.404;-1.510;2023-05-18T06:03:11;6.50;;;3.55;;
21987;SDS011;11158;53.404;-1.510;2023-05-18T06:05:55;6.55;;;4.18;;
21987;SDS011;11158;53.404;-1.510;2023-05-18T06:08:39;6.05;;;3.60;;
21987;SDS011;11158;53.404;-1.510;2023-05-18T06:11:24;5.22;;;3.85;;
21987;SDS011;11158;53.404;-1.510;2023-05-18T06:14:08;7.07;;;4.38;;
21987;SDS011;11158;53.404;-1.510;2023-05-18T06:16:52;9.77;;;3.72;;
21987;SDS011;11158;53.404;-1.510;2023-05-18T06:19:36;6.97;;;3.88;;
21987;SDS011;11158;53.404;-1.510;2023-05-18T06:22:20;5.47;;;3.58;;
21987;SDS011;11158;53.404;-1.510;2023-05-18T06:25:05;7.30;;;3.70;;
21987;SDS011;11158;53.404;-1.510;2023-05-18T06:27:51;7.65;;;3.95;;
21987;SDS011;11158;53.404;-1.510;2023-05-18T06:30:35;6.10;;;3.55;;
21987;SDS011;11158;53.404;-1.510;2023-05-18T06:33:19;7.63;;;4.18;;
21987;SDS011;11158;53.404;-1.510;2023-05-18T06:36:04;8.48;;;4.13;;
21987;SDS011;11158;53.404;-1.510;2023-05-18T06:38:48;5.43;;;3.30;;
21987;SDS011;11158;53.404;-1.510;2023-05-18T06:41:32;5.97;;;3.92;;
21987;SDS011;11158;53.404;-1.510;2023-05-18T06:44:16;8.35;;;4.07;;
21987;SDS011;11158;53.404;-1.510;2023-05-18T06:47:00;10.10;;;4.10;;
21987;SDS011;11158;53.404;-1.510;2023-05-18T06:49:44;5.97;;;3.90;;
21987;SDS011;11158;53.404;-1.510;2023-05-18T06:52:28;6.45;;;4.40;;
21987;SDS011;11158;53.404;-1.510;2023-05-18T06:55:13;7.80;;;4.07;;
21987;SDS011;11158;53.404;-1.510;2023-05-18T06:57:58;5.30;;;3.58;;
21987;SDS011;11158;53.404;-1.510;2023-05-18T07:00:44;6.40;;;3.70;;
21987;SDS011;11158;53.404;-1.510;2023-05-18T07:03:28;8.18;;;4.00;;
21987;SDS011;11158;53.404;-1.510;2023-05-18T07:06:13;7.43;;;4.13;;
21987;SDS011;11158;53.404;-1.510;2023-05-18T07:08:57;6.72;;;4.32;;
21987;SDS011;11158;53.404;-1.510;2023-05-18T07:11:41;7.28;;;3.70;;
21987;SDS011;11158;53.404;-1.510;2023-05-18T07:14:25;8.18;;;4.13;;
21987;SDS011;11158;53.404;-1.510;2023-05-18T07:17:09;7.80;;;3.95;;
21987;SDS011;11158;53.404;-1.510;2023-05-18T07:19:53;8.38;;;4.97;;
21987;SDS011;11158;53.404;-1.510;2023-05-18T07:22:37;10.25;;;5.32;;
21987;SDS011;11158;53.404;-1.510;2023-05-18T07:25:22;7.75;;;4.10;;
21987;SDS011;11158;53.404;-1.510;2023-05-18T07:28:06;6.25;;;4.13;;
21987;SDS011;11158;53.404;-1.510;2023-05-18T07:30:51;8.57;;;4.53;;
21987;SDS011;11158;53.404;-1.510;2023-05-18T07:33:35;7.65;;;3.83;;
21987;SDS011;11158;53.404;-1.510;2023-05-18T07:36:19;5.97;;;4.13;;
21987;SDS011;11158;53.404;-1.510;2023-05-18T07:39:03;7.18;;;4.00;;
21987;SDS011;11158;53.404;-1.510;2023-05-18T07:41:47;8.15;;;4.13;;
21987;SDS011;11158;53.404;-1.510;2023-05-18T07:44:32;10.18;;;3.75;;
21987;SDS011;11158;53.404;-1.510;2023-05-18T07:47:17;6.70;;;4.07;;
21987;SDS011;11158;53.404;-1.510;2023-05-18T07:50:04;4.28;;;3.80;;
21987;SDS011;11158;53.404;-1.510;2023-05-18T07:52:49;5.15;;;3.08;;
21987;SDS011;11158;53.404;-1.510;2023-05-18T07:55:32;8.07;;;3.30;;
21987;SDS011;11158;53.404;-1.510;2023-05-18T07:58:17;10.52;;;4.15;;
21987;SDS011;11158;53.404;-1.510;2023-05-18T08:01:01;6.95;;;3.30;;
21987;SDS011;11158;53.404;-1.510;2023-05-18T08:03:45;6.18;;;3.75;;
21987;SDS011;11158;53.404;-1.510;2023-05-18T08:06:29;6.82;;;3.33;;
21987;SDS011;11158;53.404;-1.510;2023-05-18T08:09:14;14.52;;;3.80;;
21987;SDS011;11158;53.404;-1.510;2023-05-18T08:11:59;4.15;;;3.38;;
21987;SDS011;11158;53.404;-1.510;2023-05-18T08:14:43;6.72;;;3.63;;
21987;SDS011;11158;53.404;-1.510;2023-05-18T08:17:27;5.15;;;3.75;;
21987;SDS011;11158;53.404;-1.510;2023-05-18T08:20:12;5.75;;;3.40;;
21987;SDS011;11158;53.404;-1.510;2023-05-18T08:22:56;4.95;;;2.83;;
21987;SDS011;11158;53.404;-1.510;2023-05-18T08:25:40;5.63;;;3.00;;
21987;SDS011;11158;53.404;-1.510;2023-05-18T08:28:25;4.35;;;3.20;;
21987;SDS011;11158;53.404;-1.510;2023-05-18T08:31:10;4.93;;;3.25;;
21987;SDS011;11158;53.404;-1.510;2023-05-18T08:33:55;6.65;;;2.80;;
21987;SDS011;11158;53.404;-1.510;2023-05-18T08:36:39;5.45;;;2.90;;
21987;SDS011;11158;53.404;-1.510;2023-05-18T08:39:25;7.80;;;3.25;;
21987;SDS011;11158;53.404;-1.510;2023-05-18T08:42:17;5.60;;;2.78;;
21987;SDS011;11158;53.404;-1.510;2023-05-18T08:45:11;11.38;;;3.03;;
21987;SDS011;11158;53.404;-1.510;2023-05-18T08:48:01;3.90;;;2.88;;
21987;SDS011;11158;53.404;-1.510;2023-05-18T08:50:46;4.32;;;2.88;;
21987;SDS011;11158;53.404;-1.510;2023-05-18T08:53:32;4.55;;;2.72;;
21987;SDS011;11158;53.404;-1.510;2023-05-18T08:56:23;3.58;;;2.70;;
21987;SDS011;11158;53.404;-1.510;2023-05-18T08:59:08;4.07;;;3.00;;
21987;SDS011;11158;53.404;-1.510;2023-05-18T09:01:54;5.43;;;2.80;;
21987;SDS011;11158;53.404;-1.510;2023-05-18T09:04:39;3.67;;;2.80;;
21987;SDS011;11158;53.404;-1.510;2023-05-18T09:07:24;5.22;;;2.70;;
21987;SDS011;11158;53.404;-1.510;2023-05-18T09:10:10;4.38;;;2.80;;
21987;SDS011;11158;53.404;-1.510;2023-05-18T09:12:56;4.10;;;3.00;;
21987;SDS011;11158;53.404;-1.510;2023-05-18T09:15:42;7.28;;;3.40;;
21987;SDS011;11158;53.404;-1.510;2023-05-18T09:18:26;7.15;;;3.05;;
21987;SDS011;11158;53.404;-1.510;2023-05-18T09:21:10;4.55;;;3.05;;
21987;SDS011;11158;53.404;-1.510;2023-05-18T09:23:55;4.55;;;2.65;;
21987;SDS011;11158;53.404;-1.510;2023-05-18T09:26:39;5.38;;;3.58;;
21987;SDS011;11158;53.404;-1.510;2023-05-18T09:29:23;5.43;;;3.10;;
21987;SDS011;11158;53.404;-1.510;2023-05-18T09:32:09;7.28;;;3.63;;
21987;SDS011;11158;53.404;-1.510;2023-05-18T09:34:53;4.65;;;3.05;;
21987;SDS011;11158;53.404;-1.510;2023-05-18T09:37:40;7.63;;;3.00;;
21987;SDS011;11158;53.404;-1.510;2023-05-18T09:40:26;4.38;;;2.92;;
21987;SDS011;11158;53.404;-1.510;2023-05-18T09:43:12;6.88;;;2.88;;
21987;SDS011;11158;53.404;-1.510;2023-05-18T09:45:56;6.10;;;2.95;;
21987;SDS011;11158;53.404;-1.510;2023-05-18T09:48:50;6.30;;;3.33;;
21987;SDS011;11158;53.404;-1.510;2023-05-18T09:51:36;4.32;;;2.90;;
21987;SDS011;11158;53.404;-1.510;2023-05-18T09:54:21;6.07;;;3.40;;
21987;SDS011;11158;53.404;-1.510;2023-05-18T09:57:06;4.03;;;3.15;;
21987;SDS011;11158;53.404;-1.510;2023-05-18T10:00:01;5.38;;;3.33;;
21987;SDS011;11158;53.404;-1.510;2023-05-18T10:02:50;9.30;;;3.60;;
21987;SDS011;11158;53.404;-1.510;2023-05-18T10:05:37;6.95;;;3.28;;
21987;SDS011;11158;53.404;-1.510;2023-05-18T10:08:24;4.53;;;3.15;;
21987;SDS011;11158;53.404;-1.510;2023-05-18T10:11:08;3.53;;;2.90;;
21987;SDS011;11158;53.404;-1.510;2023-05-18T10:13:54;3.70;;;2.95;;
21987;SDS011;11158;53.404;-1.510;2023-05-18T10:16:41;5.40;;;2.92;;
21987;SDS011;11158;53.404;-1.510;2023-05-18T10:19:26;10.85;;;3.38;;
21987;SDS011;11158;53.404;-1.510;2023-05-18T10:22:10;4.18;;;2.85;;
21987;SDS011;11158;53.404;-1.510;2023-05-18T10:25:04;4.10;;;3.05;;
21987;SDS011;11158;53.404;-1.510;2023-05-18T10:27:50;3.97;;;2.70;;
21987;SDS011;11158;53.404;-1.510;2023-05-18T10:30:39;5.38;;;3.13;;
21987;SDS011;11158;53.404;-1.510;2023-05-18T10:33:25;4.45;;;3.10;;
21987;SDS011;11158;53.404;-1.510;2023-05-18T10:36:10;5.05;;;2.80;;
21987;SDS011;11158;53.404;-1.510;2023-05-18T10:38:56;7.45;;;3.53;;
21987;SDS011;11158;53.404;-1.510;2023-05-18T10:41:43;6.78;;;3.28;;
21987;SDS011;11158;53.404;-1.510;2023-05-18T10:44:29;6.35;;;3.17;;
21987;SDS011;11158;53.404;-1.510;2023-05-18T10:47:14;7.75;;;3.40;;
21987;SDS011;11158;53.404;-1.510;2023-05-18T10:49:58;6.28;;;3.20;;
21987;SDS011;11158;53.404;-1.510;2023-05-18T10:52:43;6.78;;;3.20;;
21987;SDS011;11158;53.404;-1.510;2023-05-18T10:55:30;5.47;;;3.08;;
21987;SDS011;11158;53.404;-1.510;2023-05-18T10:58:15;5.80;;;3.25;;
21987;SDS011;11158;53.404;-1.510;2023-05-18T11:01:01;6.13;;;3.20;;
21987;SDS011;11158;53.404;-1.510;2023-05-18T11:03:49;6.75;;;2.90;;
21987;SDS011;11158;53.404;-1.510;2023-05-18T11:06:34;6.32;;;3.50;;
21987;SDS011;11158;53.404;-1.510;2023-05-18T11:09:21;10.43;;;3.55;;
21987;SDS011;11158;53.404;-1.510;2023-05-18T11:12:11;12.52;;;3.65;;
21987;SDS011;11158;53.404;-1.510;2023-05-18T11:14:56;6.47;;;3.28;;
21987;SDS011;11158;53.404;-1.510;2023-05-18T11:17:40;8.18;;;3.38;;
21987;SDS011;11158;53.404;-1.510;2023-05-18T11:20:25;6.70;;;3.33;;
21987;SDS011;11158;53.404;-1.510;2023-05-18T11:23:09;6.05;;;3.20;;
21987;SDS011;11158;53.404;-1.510;2023-05-18T11:25:53;5.45;;;3.45;;
21987;SDS011;11158;53.404;-1.510;2023-05-18T11:28:41;4.40;;;2.97;;
21987;SDS011;11158;53.404;-1.510;2023-05-18T11:32:20;6.00;;;3.00;;
21987;SDS011;11158;53.404;-1.510;2023-05-18T11:43:28;6.03;;;2.78;;
21987;SDS011;11158;53.404;-1.510;2023-05-18T11:46:16;5.70;;;3.22;;
21987;SDS011;11158;53.404;-1.510;2023-05-18T11:49:07;6.47;;;3.53;;
21987;SDS011;11158;53.404;-1.510;2023-05-18T11:52:36;5.80;;;3.08;;
21987;SDS011;11158;53.404;-1.510;2023-05-18T11:55:04;7.90;;;3.58;;
21987;SDS011;11158;53.404;-1.510;2023-05-18T11:57:50;5.95;;;2.95;;
21987;SDS011;11158;53.404;-1.510;2023-05-18T12:00:35;9.00;;;3.72;;
21987;SDS011;11158;53.404;-1.510;2023-05-18T12:03:23;3.83;;;2.88;;
21987;SDS011;11158;53.404;-1.510;2023-05-18T12:06:09;6.78;;;3.55;;
21987;SDS011;11158;53.404;-1.510;2023-05-18T12:08:54;8.25;;;3.17;;
21987;SDS011;11158;53.404;-1.510;2023-05-18T12:11:38;8.70;;;3.67;;
21987;SDS011;11158;53.404;-1.510;2023-05-18T12:14:22;5.50;;;3.25;;
21987;SDS011;11158;53.404;-1.510;2023-05-18T12:17:07;7.93;;;3.78;;
21987;SDS011;11158;53.404;-1.510;2023-05-18T12:19:53;7.13;;;3.50;;
21987;SDS011;11158;53.404;-1.510;2023-05-18T12:22:37;8.57;;;3.55;;
21987;SDS011;11158;53.404;-1.510;2023-05-18T12:25:23;11.18;;;3.65;;
21987;SDS011;11158;53.404;-1.510;2023-05-18T12:28:10;9.57;;;3.80;;
21987;SDS011;11158;53.404;-1.510;2023-05-18T12:30:57;5.78;;;3.60;;
21987;SDS011;11158;53.404;-1.510;2023-05-18T12:33:41;7.72;;;3.55;;
21987;SDS011;11158;53.404;-1.510;2023-05-18T12:36:26;7.75;;;3.17;;
21987;SDS011;11158;53.404;-1.510;2023-05-18T12:39:13;8.68;;;3.55;;
21987;SDS011;11158;53.404;-1.510;2023-05-18T12:42:07;7.50;;;3.50;;
21987;SDS011;11158;53.404;-1.510;2023-05-18T12:44:57;8.27;;;3.20;;
21987;SDS011;11158;53.404;-1.510;2023-05-18T12:47:41;8.73;;;3.55;;
21987;SDS011;11158;53.404;-1.510;2023-05-18T12:50:25;8.57;;;3.75;;
21987;SDS011;11158;53.404;-1.510;2023-05-18T12:53:09;6.85;;;3.47;;
21987;SDS011;11158;53.404;-1.510;2023-05-18T12:55:56;8.68;;;3.65;;
21987;SDS011;11158;53.404;-1.510;2023-05-18T12:58:54;6.03;;;3.83;;
21987;SDS011;11158;53.404;-1.510;2023-05-18T13:01:41;6.88;;;3.85;;
21987;SDS011;11158;53.404;-1.510;2023-05-18T13:04:33;5.72;;;3.58;;
21987;SDS011;11158;53.404;-1.510;2023-05-18T13:07:20;12.00;;;4.28;;
21987;SDS011;11158;53.404;-1.510;2023-05-18T13:10:06;10.55;;;6.68;;
21987;SDS011;11158;53.404;-1.510;2023-05-18T13:12:51;8.00;;;4.50;;
21987;SDS011;11158;53.404;-1.510;2023-05-18T13:15:37;7.50;;;3.97;;
21987;SDS011;11158;53.404;-1.510;2023-05-18T13:18:22;4.82;;;3.40;;
21987;SDS011;11158;53.404;-1.510;2023-05-18T13:21:06;7.38;;;3.92;;
21987;SDS011;11158;53.404;-1.510;2023-05-18T13:23:51;5.97;;;3.63;;
21987;SDS011;11158;53.404;-1.510;2023-05-18T13:26:36;6.95;;;3.40;;
21987;SDS011;11158;53.404;-1.510;2023-05-18T13:29:20;6.18;;;3.30;;
21987;SDS011;11158;53.404;-1.510;2023-05-18T13:32:04;7.57;;;3.70;;
21987;SDS011;11158;53.404;-1.510;2023-05-18T13:34:48;5.32;;;3.70;;
21987;SDS011;11158;53.404;-1.510;2023-05-18T13:37:32;6.25;;;3.55;;
21987;SDS011;11158;53.404;-1.510;2023-05-18T13:40:17;5.57;;;3.30;;
21987;SDS011;11158;53.404;-1.510;2023-05-18T13:43:02;6.15;;;4.57;;
21987;SDS011;11158;53.404;-1.510;2023-05-18T13:45:48;6.72;;;4.00;;
21987;SDS011;11158;53.404;-1.510;2023-05-18T13:48:33;8.25;;;3.78;;
21987;SDS011;11158;53.404;-1.510;2023-05-18T13:51:17;6.00;;;3.08;;
21987;SDS011;11158;53.404;-1.510;2023-05-18T13:54:01;8.32;;;3.45;;
21987;SDS011;11158;53.404;-1.510;2023-05-18T13:56:46;5.85;;;3.35;;
21987;SDS011;11158;53.404;-1.510;2023-05-18T13:59:30;7.03;;;4.00;;
21987;SDS011;11158;53.404;-1.510;2023-05-18T14:02:17;8.23;;;3.72;;
21987;SDS011;11158;53.404;-1.510;2023-05-18T14:05:02;10.18;;;4.15;;
21987;SDS011;11158;53.404;-1.510;2023-05-18T14:07:47;5.78;;;3.95;;
21987;SDS011;11158;53.404;-1.510;2023-05-18T14:10:31;10.70;;;4.00;;
21987;SDS011;11158;53.404;-1.510;2023-05-18T14:13:15;5.43;;;4.03;;
21987;SDS011;11158;53.404;-1.510;2023-05-18T14:15:59;4.63;;;3.47;;
21987;SDS011;11158;53.404;-1.510;2023-05-18T14:18:44;7.18;;;3.67;;
21987;SDS011;11158;53.404;-1.510;2023-05-18T14:21:28;7.57;;;3.90;;
21987;SDS011;11158;53.404;-1.510;2023-05-18T14:24:13;7.60;;;3.95;;
21987;SDS011;11158;53.404;-1.510;2023-05-18T14:26:58;6.05;;;3.65;;
21987;SDS011;11158;53.404;-1.510;2023-05-18T14:29:42;6.65;;;3.80;;
21987;SDS011;11158;53.404;-1.510;2023-05-18T14:32:26;9.43;;;4.72;;
21987;SDS011;11158;53.404;-1.510;2023-05-18T14:35:09;6.30;;;3.65;;
21987;SDS011;11158;53.404;-1.510;2023-05-18T14:37:53;6.20;;;4.07;;
21987;SDS011;11158;53.404;-1.510;2023-05-18T14:40:38;8.40;;;4.55;;
21987;SDS011;11158;53.404;-1.510;2023-05-18T14:43:22;9.68;;;4.35;;
21987;SDS011;11158;53.404;-1.510;2023-05-18T14:46:06;7.57;;;4.45;;
21987;SDS011;11158;53.404;-1.510;2023-05-18T14:48:50;6.68;;;4.47;;
21987;SDS011;11158;53.404;-1.510;2023-05-18T14:51:34;6.78;;;4.25;;
21987;SDS011;11158;53.404;-1.510;2023-05-18T14:54:18;9.02;;;4.72;;
21987;SDS011;11158;53.404;-1.510;2023-05-18T14:57:03;8.35;;;4.60;;
21987;SDS011;11158;53.404;-1.510;2023-05-18T14:59:47;8.63;;;4.95;;
21987;SDS011;11158;53.404;-1.510;2023-05-18T15:02:31;7.32;;;4.75;;
21987;SDS011;11158;53.404;-1.510;2023-05-18T15:05:15;7.43;;;4.35;;
21987;SDS011;11158;53.404;-1.510;2023-05-18T15:08:00;8.48;;;4.80;;
21987;SDS011;11158;53.404;-1.510;2023-05-18T15:10:45;7.43;;;4.22;;
21987;SDS011;11158;53.404;-1.510;2023-05-18T15:13:29;10.80;;;5.13;;
21987;SDS011;11158;53.404;-1.510;2023-05-18T15:16:13;8.68;;;4.63;;
21987;SDS011;11158;53.404;-1.510;2023-05-18T15:18:58;9.23;;;4.40;;
21987;SDS011;11158;53.404;-1.510;2023-05-18T15:21:43;14.15;;;5.22;;
21987;SDS011;11158;53.404;-1.510;2023-05-18T15:24:27;9.15;;;5.47;;
21987;SDS011;11158;53.404;-1.510;2023-05-18T15:27:11;9.07;;;5.10;;
21987;SDS011;11158;53.404;-1.510;2023-05-18T15:29:55;10.85;;;4.70;;
21987;SDS011;11158;53.404;-1.510;2023-05-18T15:32:39;13.82;;;5.25;;
21987;SDS011;11158;53.404;-1.510;2023-05-18T15:35:25;10.68;;;4.63;;
21987;SDS011;11158;53.404;-1.510;2023-05-18T15:38:09;9.15;;;5.65;;
21987;SDS011;11158;53.404;-1.510;2023-05-18T15:40:53;8.63;;;4.28;;
21987;SDS011;11158;53.404;-1.510;2023-05-18T15:43:37;5.63;;;4.13;;
21987;SDS011;11158;53.404;-1.510;2023-05-18T15:46:22;8.88;;;4.85;;
21987;SDS011;11158;53.404;-1.510;2023-05-18T15:49:05;9.50;;;4.95;;
21987;SDS011;11158;53.404;-1.510;2023-05-18T15:51:49;6.22;;;4.03;;
21987;SDS011;11158;53.404;-1.510;2023-05-18T15:54:33;7.45;;;4.57;;
21987;SDS011;11158;53.404;-1.510;2023-05-18T15:57:18;8.38;;;4.47;;
21987;SDS011;11158;53.404;-1.510;2023-05-18T16:00:02;8.98;;;4.63;;
21987;SDS011;11158;53.404;-1.510;2023-05-18T16:02:47;6.85;;;4.25;;
21987;SDS011;11158;53.404;-1.510;2023-05-18T16:05:31;6.97;;;4.50;;
21987;SDS011;11158;53.404;-1.510;2023-05-18T16:08:15;7.85;;;4.03;;
21987;SDS011;11158;53.404;-1.510;2023-05-18T16:10:59;6.47;;;4.85;;
21987;SDS011;11158;53.404;-1.510;2023-05-18T16:13:44;7.30;;;4.30;;
21987;SDS011;11158;53.404;-1.510;2023-05-18T16:16:30;7.82;;;4.78;;
21987;SDS011;11158;53.404;-1.510;2023-05-18T16:19:15;8.60;;;4.20;;
21987;SDS011;11158;53.404;-1.510;2023-05-18T16:22:00;7.63;;;4.05;;
21987;SDS011;11158;53.404;-1.510;2023-05-18T16:24:44;8.05;;;4.35;;
21987;SDS011;11158;53.404;-1.510;2023-05-18T16:27:28;5.95;;;4.05;;
21987;SDS011;11158;53.404;-1.510;2023-05-18T16:30:12;5.40;;;4.22;;